»·PEaware :: N23JB KSBP-KSMO

N23JB :: KSBP-KSMO

FLIGHT INFORMATION

Flight Status: Arrived
Operator: Privately registered:
United States
More flights under this callsign
Pilot: Jaxon B. (28892)
Aircraft: BEECH AIRCRAFT A90-E90 KING AIR
(BE9L)
More flights by this aircraft type
Origin: KSBP San Luis Co Regl
United States
Destination: KSMO Santa Monica Mun
United States
More flights between these airports :: More routes between these airports
Route: +
File this flight plan on PilotEdge
Remarks:
Altitude:
(Current/Filed)
7,500ft
Speed:
(Current/Filed)
0kts
Departed: 28-May-20 09:05 AM
Arrived: 28-May-20 09:57 AM
Distance/Time
Traveled:
131nm/0:52
Distance/Time
To Go:
Arrived

Flight Plot

Page will automatically refresh every two minutes.


Map Options




Map Legend


Flown Route
Filed Route
Departure Airport
Arrival Airport
Navaid (VOR, NDB)
Fix

Horizontal Profiles

Position Reports

Time Latitude Longitude Heading Altitude Ground
Speed
28-May-20 09:03 35.234419 -120.633447 298 215ft 0kts
28-May-20 09:04 35.234133 -120.633915 215 215ft 0kts
28-May-20 09:05 35.235318 -120.637495 305 215ft 82kts
28-May-20 09:06 35.261812 -120.657106 27 1909ft 137kts
28-May-20 09:07 35.258566 -120.616604 153 3749ft 147kts
28-May-20 09:08 35.224900 -120.594929 143 5799ft 136kts
28-May-20 09:09 35.199124 -120.562850 128 7490ft 145kts
28-May-20 09:10 35.170762 -120.514840 124 7539ft 202kts
28-May-20 09:11 35.139967 -120.458870 123 7538ft 193kts
28-May-20 09:12 35.110476 -120.404787 122 7541ft 189kts
28-May-20 09:13 35.081237 -120.351189 122 7543ft 189kts
28-May-20 09:13 35.056999 -120.306821 123 7545ft 190kts
28-May-20 09:15 35.022664 -120.244062 123 7546ft 190kts
28-May-20 09:15 34.998262 -120.199527 123 7544ft 190kts
28-May-20 09:16 34.966670 -120.141960 123 7543ft 211kts
28-May-20 09:18 34.928144 -120.071886 122 7539ft 214kts
28-May-20 09:18 34.900569 -120.021811 122 7537ft 214kts
28-May-20 09:19 34.867614 -119.963657 125 8090ft 194kts
28-May-20 09:20 34.832951 -119.915107 132 8769ft 195kts
28-May-20 09:21 34.794379 -119.868087 137 9047ft 204kts
28-May-20 09:22 34.752784 -119.821419 128 9032ft 214kts
28-May-20 09:23 34.742174 -119.747821 112 8468ft 214kts
28-May-20 09:24 34.713765 -119.685615 123 8472ft 209kts
28-May-20 09:25 34.681660 -119.626865 124 8472ft 208kts
28-May-20 09:26 34.649175 -119.568504 124 8472ft 208kts
28-May-20 09:27 34.616672 -119.510304 124 8472ft 208kts
28-May-20 09:28 34.584081 -119.452052 124 8474ft 208kts
28-May-20 09:29 34.551453 -119.393829 125 8476ft 209kts
28-May-20 09:30 34.518896 -119.335828 125 8479ft 209kts
28-May-20 09:31 34.486028 -119.277367 125 8481ft 209kts
28-May-20 09:32 34.453151 -119.218994 125 8287ft 219kts
28-May-20 09:33 34.417224 -119.155329 125 7108ft 233kts
28-May-20 09:34 34.381926 -119.092885 126 6477ft 225kts
28-May-20 09:35 34.347277 -119.036086 133 6363ft 220kts
28-May-20 09:36 34.303249 -118.988367 144 5910ft 225kts
28-May-20 09:37 34.250507 -118.950735 150 5131ft 234kts
28-May-20 09:38 34.193286 -118.923586 166 4981ft 217kts
28-May-20 09:39 34.134968 -118.906031 167 4945ft 216kts
28-May-20 09:40 34.074802 -118.893335 174 4521ft 221kts
28-May-20 09:41 34.014549 -118.890603 158 4202ft 229kts
28-May-20 09:42 33.996847 -118.827344 90 2278ft 227kts
28-May-20 09:43 33.996548 -118.764883 90 543ft 188kts
28-May-20 09:44 34.004406 -118.701478 76 1224ft 144kts
28-May-20 09:45 34.006059 -118.692737 76 788ft 147kts
28-May-20 09:50 33.909355 -118.582627 22 1860ft 176kts
28-May-20 09:51 33.956826 -118.570939 4 1937ft 166kts
28-May-20 09:52 33.992320 -118.546642 41 1954ft 130kts
28-May-20 09:53 34.014083 -118.509537 65 1345ft 137kts
28-May-20 09:54 34.029381 -118.467380 64 1360ft 125kts
28-May-20 09:55 34.027901 -118.439316 185 646ft 102kts
28-May-20 09:56 34.014260 -118.452414 130 133ft 7kts

Navigation Log

Ident Type
Flight plan parsing failed, navigation log unavailable